Aeroporto :
LOGIN :

Iscrizione | Disclaimer

   EN    FR    IT 

 










Sommario :    VFR   VFR Marginale   IFR   IFR Intensivo   IFR Molto Intensivo
Visibilità : 
Base nubi : 
>= 8 km
>= 3000ft
5 / 8 km
1000 / 3000 ft
1500m / 5 km
500 / 1000 ft
800 / 1500m
200 / 500 ft
< 800m
< 200 ft
Simboli :   Temporali  Nebbia  Neve Forte  Precipitazioni Forti  Vento > 20 kt
SIGMETs :   Varie  Temporali  Ghiacco  Turbolenza  Onda orograficha  Ceneri Vulcaniche






- Altitudine del aeroporto : 405 ft
- Codice IATA : SUJ


LRSM - Satu Mare

ULTIMO METAR :
  • 251600Z AUTO 27005KT 4400 BR FEW028/// M01/M03 Q1024

METARs OBSOLETI :
  • 251530Z AUTO 29007KT 4900 BR NCD M01/M02 Q1023
  • 251500Z AUTO 29007KT 7000 NCD 00/M02 Q1024
  • 251430Z AUTO 30005KT 9000 NCD 02/M01 Q1024
  • 251400Z AUTO 29004KT 9999 NCD 04/M02 Q1023
  • 251330Z AUTO VRB01KT 9999 NCD 04/M02 Q1023

Previsioni scadute.



MetMap, La meteo Aeronautica in un colpo d'occhio ! - Copyright ORBIFLY Dicembre 2007 - Disclaimer

ORBIFLY MET'MAP TEAM :

Programmazione e sviluppo : Alexandra Zaïnal
Concezione : Baudouin d'Aumeries
Aiuto per la programmazione : Marc-Olivier Méhu
Supporto tecnico e logistico : Manuel Goepfert
Aiuto per la traduzione : Arnaldo La Scala

Contatto : metmap@orbifly.com




FONTI E CREDITI :

   NOAA